Time;durP1;ratioP1;P1;durP2;ratioP2;P2;SDS_P1;SDS_P2;PMS_P1;PMS_P2;Temp;Humidity;BMP_temperature;BMP_pressure;BME280_temperature;BME280_humidity;BME280_pressure;Samples;Min_cycle;Max_cycle;Signal;HPM_P1;HPM_P2
2023/09/28 00:02:51;;;;;;;5.88;4.97;;;;;;;9.77;100.00;96908.06;4964947;28;20069;-69
2023/09/28 00:05:19;;;;;;;6.80;5.72;;;;;;;9.79;100.00;96913.97;4960477;28;20546;-69
2023/09/28 00:07:46;;;;;;;6.47;5.45;;;;;;;9.88;100.00;96900.09;4961691;28;20043;-69
2023/09/28 00:10:13;;;;;;;10.75;5.93;;;;;;;9.94;100.00;96904.16;4956832;28;20042;-69
2023/09/28 00:12:44;;;;;;;6.47;5.43;;;;;;;9.99;100.00;96905.81;4986166;28;20070;-68
2023/09/28 00:15:10;;;;;;;10.43;5.70;;;;;;;9.97;100.00;96905.38;4975089;28;20104;-67
2023/09/28 00:17:38;;;;;;;6.93;5.85;;;;;;;9.91;100.00;96897.44;4979496;28;20046;-68
2023/09/28 00:20:09;;;;;;;11.00;6.00;;;;;;;9.76;100.00;96893.59;4967868;28;20042;-66
2023/09/28 00:22:35;;;;;;;8.00;6.85;;;;;;;9.53;100.00;96898.94;4965578;28;20054;-69
2023/09/28 00:25:00;;;;;;;7.70;5.68;;;;;;;9.36;100.00;96897.38;4979454;28;20035;-69
2023/09/28 00:27:26;;;;;;;10.48;6.63;;;;;;;9.26;100.00;96897.13;4963764;28;20038;-69
2023/09/28 00:29:51;;;;;;;8.40;6.55;;;;;;;9.15;100.00;96911.28;4979044;28;20039;-68
2023/09/28 00:32:17;;;;;;;8.15;6.45;;;;;;;9.08;100.00;96904.88;4982260;28;20050;-69
2023/09/28 00:34:43;;;;;;;10.68;6.63;;;;;;;9.04;100.00;96903.97;4965440;28;20047;-69
2023/09/28 00:37:08;;;;;;;7.82;6.30;;;;;;;8.95;100.00;96904.16;4959776;28;20045;-68
2023/09/28 00:39:35;;;;;;;9.55;6.18;;;;;;;9.06;100.00;96904.44;4964073;28;20097;-68
2023/09/28 00:42:00;;;;;;;9.10;6.43;;;;;;;9.03;100.00;96907.84;4967096;28;20077;-68
2023/09/28 00:44:26;;;;;;;7.53;5.97;;;;;;;9.01;100.00;96908.19;4962860;28;20096;-68
2023/09/28 00:46:51;;;;;;;8.13;5.95;;;;;;;8.89;100.00;96906.31;4964043;28;20121;-69
2023/09/28 00:49:17;;;;;;;8.32;6.00;;;;;;;8.77;100.00;96903.69;4959667;28;20050;-69
2023/09/28 00:51:47;;;;;;;7.35;6.53;;;;;;;8.67;100.00;96910.44;4978286;28;20046;-69
2023/09/28 00:54:13;;;;;;;6.18;5.07;;;;;;;8.83;100.00;96915.13;4959443;28;20042;-69
2023/09/28 00:56:40;;;;;;;7.18;4.97;;;;;;;9.01;100.00;96910.94;4979119;28;20493;-69
2023/09/28 00:59:06;;;;;;;9.30;6.90;;;;;;;9.22;100.00;96916.16;4958893;28;20042;-69
2023/09/28 01:01:31;;;;;;;9.70;6.20;;;;;;;9.43;100.00;96913.13;4972614;28;20054;-69
2023/09/28 01:04:04;;;;;;;8.23;6.13;;;;;;;9.57;100.00;96904.50;4978002;28;20843;-69
2023/09/28 01:06:30;;;;;;;9.27;6.45;;;;;;;9.56;100.00;96903.69;4963494;28;20043;-68
2023/09/28 01:08:56;;;;;;;8.60;6.07;;;;;;;9.47;100.00;96910.47;4975713;28;20084;-69
2023/09/28 01:11:22;;;;;;;7.63;5.75;;;;;;;9.36;100.00;96921.97;4972139;28;20046;-68
2023/09/28 01:13:48;;;;;;;8.32;6.40;;;;;;;9.35;100.00;96923.09;4972157;28;20054;-68
2023/09/28 01:16:14;;;;;;;8.35;6.05;;;;;;;9.37;100.00;96925.50;4963056;28;20129;-69
2023/09/28 01:18:40;;;;;;;6.57;5.50;;;;;;;9.49;100.00;96927.31;4982119;28;20130;-68
2023/09/28 01:21:06;;;;;;;8.43;5.72;;;;;;;9.54;100.00;96924.31;4958764;28;20042;-67
2023/09/28 01:23:32;;;;;;;8.57;5.82;;;;;;;9.56;100.00;96922.84;4963860;28;20046;-68
2023/09/28 01:25:58;;;;;;;6.38;5.15;;;;;;;9.52;100.00;96921.16;4967679;28;20054;-68
2023/09/28 01:28:23;;;;;;;7.90;4.97;;;;;;;9.50;100.00;96921.50;4984893;28;20114;-69
2023/09/28 01:30:49;;;;;;;11.93;5.40;;;;;;;9.56;100.00;96924.75;4976644;28;20050;-69
2023/09/28 01:33:15;;;;;;;8.10;5.18;;;;;;;9.59;100.00;96929.53;4963586;28;20126;-67
2023/09/28 01:35:41;;;;;;;7.45;5.80;;;;;;;9.59;100.00;96936.94;4974531;28;20018;-68
2023/09/28 01:38:48;;;;;;;10.18;5.72;;;;;;;9.63;100.00;96929.63;4969267;28;20475;-68
2023/09/28 01:41:14;;;;;;;5.55;4.50;;;;;;;9.61;100.00;96929.97;4962771;28;20446;-67
2023/09/28 01:43:40;;;;;;;7.68;4.97;;;;;;;9.61;100.00;96924.50;4963743;28;20505;-69
2023/09/28 01:46:06;;;;;;;6.88;4.78;;;;;;;9.54;100.00;96930.63;4963358;28;20042;-68
2023/09/28 01:48:32;;;;;;;6.07;4.63;;;;;;;9.53;100.00;96929.00;4978479;28;20521;-68
2023/09/28 01:50:57;;;;;;;7.28;4.88;;;;;;;9.57;100.00;96929.88;4992053;28;20042;-69
2023/09/28 01:53:23;;;;;;;10.32;5.65;;;;;;;9.45;100.00;96926.44;4960198;28;20075;-69
2023/09/28 01:55:48;;;;;;;8.02;5.60;;;;;;;9.42;100.00;96933.44;4961962;28;20434;-69
2023/09/28 01:58:14;;;;;;;6.60;5.50;;;;;;;9.51;100.00;96922.31;4959216;28;20043;-69
2023/09/28 02:00:44;;;;;;;11.82;5.78;;;;;;;9.48;100.00;96933.97;4963327;28;20077;-69
2023/09/28 02:03:09;;;;;;;7.78;6.13;;;;;;;9.46;100.00;96933.53;4973927;28;20049;-68
2023/09/28 02:05:35;;;;;;;9.20;6.38;;;;;;;9.35;100.00;96931.31;4962974;28;20121;-69
2023/09/28 02:08:02;;;;;;;10.38;5.88;;;;;;;9.31;100.00;96922.22;4962320;28;20051;-68
2023/09/28 02:10:28;;;;;;;11.60;6.22;;;;;;;9.42;100.00;96918.94;4975407;28;20100;-69
2023/09/28 02:12:55;;;;;;;12.05;6.47;;;;;;;9.57;100.00;96915.44;4970026;28;20043;-69
2023/09/28 02:15:22;;;;;;;8.00;5.90;;;;;;;9.51;100.00;96919.59;4964991;28;20042;-68
2023/09/28 02:17:49;;;;;;;11.77;6.20;;;;;;;9.50;100.00;96921.50;4971322;28;20042;-69
2023/09/28 02:20:16;;;;;;;8.38;6.10;;;;;;;9.55;100.00;96923.19;4957512;28;20050;-68
2023/09/28 02:22:46;;;;;;;7.07;5.80;;;;;;;9.61;100.00;96923.72;4970037;28;20045;-68
2023/09/28 02:25:17;;;;;;;10.02;5.63;;;;;;;9.58;100.00;96922.50;4957969;28;20047;-68
2023/09/28 02:27:44;;;;;;;9.18;5.97;;;;;;;9.59;100.00;96920.53;4961456;28;20663;-68
2023/09/28 02:30:20;;;;;;;8.73;6.40;;;;;;;9.63;100.00;96927.66;4968638;28;20112;-67
2023/09/28 02:32:47;;;;;;;8.35;6.60;;;;;;;9.68;100.00;96930.13;4967634;28;20050;-69
2023/09/28 02:35:14;;;;;;;8.93;6.25;;;;;;;9.70;100.00;96932.53;4957194;28;20455;-68
2023/09/28 02:37:41;;;;;;;10.90;6.43;;;;;;;9.57;100.00;96940.03;4961314;28;20409;-69
2023/09/28 02:40:08;;;;;;;9.32;5.97;;;;;;;9.38;100.00;96952.47;4965126;28;20046;-70
2023/09/28 02:42:34;;;;;;;8.65;7.00;;;;;;;9.50;100.00;96942.59;4959219;28;20125;-69
2023/09/28 02:44:59;;;;;;;10.80;6.85;;;;;;;9.56;100.00;96936.50;4965123;28;20095;-69
2023/09/28 02:47:26;;;;;;;12.35;6.88;;;;;;;9.66;100.00;96939.84;4959229;28;20528;-69
2023/09/28 02:49:52;;;;;;;11.38;7.38;;;;;;;9.65;100.00;96930.88;4968303;28;20054;-68
2023/09/28 02:52:17;;;;;;;9.55;6.63;;;;;;;9.70;100.00;96938.00;4962199;28;20379;-69
2023/09/28 02:54:43;;;;;;;8.35;5.97;;;;;;;9.69;100.00;96930.94;4962311;28;20050;-69
2023/09/28 02:57:09;;;;;;;9.32;5.78;;;;;;;9.69;100.00;96936.41;4955564;28;20035;-69
2023/09/28 02:59:35;;;;;;;9.73;5.95;;;;;;;9.61;100.00;96929.19;4962155;28;20509;-69
2023/09/28 03:02:01;;;;;;;8.77;5.82;;;;;;;9.64;100.00;96933.94;4961282;28;20065;-69
2023/09/28 03:04:26;;;;;;;11.48;6.43;;;;;;;9.60;100.00;96933.88;4957699;28;20043;-69
2023/09/28 03:06:55;;;;;;;9.52;6.20;;;;;;;9.56;100.00;96935.69;4960812;28;20055;-68
2023/09/28 03:09:20;;;;;;;8.65;6.20;;;;;;;9.61;100.00;96929.19;4958041;28;20141;-68
2023/09/28 03:11:46;;;;;;;10.98;7.47;;;;;;;9.69;100.00;96941.88;4970523;28;20137;-69
2023/09/28 03:14:11;;;;;;;9.20;6.50;;;;;;;9.70;100.00;96935.25;4959945;28;20667;-68
2023/09/28 03:16:38;;;;;;;11.35;6.80;;;;;;;9.71;100.00;96931.38;4966833;28;20057;-69
2023/09/28 03:19:04;;;;;;;8.90;6.20;;;;;;;9.57;100.00;96943.56;4977889;28;20058;-67
2023/09/28 03:21:29;;;;;;;11.40;6.82;;;;;;;9.56;100.00;96943.91;4967726;28;20046;-70
2023/09/28 03:23:59;;;;;;;9.52;6.32;;;;;;;9.63;100.00;96946.81;4972545;28;20093;-69
2023/09/28 03:26:26;;;;;;;9.15;6.97;;;;;;;9.68;100.00;96948.50;4955173;28;20117;-69
2023/09/28 03:28:52;;;;;;;12.45;6.68;;;;;;;9.73;100.00;96945.50;4977049;28;20043;-69
2023/09/28 03:31:17;;;;;;;10.85;6.32;;;;;;;9.72;100.00;96952.09;4971242;28;20057;-69
2023/09/28 03:33:43;;;;;;;8.93;6.63;;;;;;;9.72;100.00;96941.16;4963158;28;20050;-68
2023/09/28 03:36:08;;;;;;;9.88;6.97;;;;;;;9.60;100.00;96944.81;4970651;28;20039;-69
2023/09/28 03:38:34;;;;;;;11.00;6.97;;;;;;;9.43;100.00;96948.66;4961902;28;20505;-69
2023/09/28 03:40:59;;;;;;;12.20;7.45;;;;;;;9.25;100.00;96942.75;4961147;28;20046;-68
2023/09/28 03:43:24;;;;;;;12.55;7.55;;;;;;;9.11;100.00;96945.94;4956794;28;20494;-69
2023/09/28 03:45:50;;;;;;;12.43;7.28;;;;;;;9.15;100.00;96943.31;4971227;28;20055;-68
2023/09/28 03:48:15;;;;;;;11.82;6.82;;;;;;;9.29;100.00;96946.41;4956976;28;20061;-68
2023/09/28 03:50:42;;;;;;;11.40;6.93;;;;;;;9.40;100.00;96949.41;4961661;28;20050;-68
2023/09/28 03:53:07;;;;;;;11.30;7.38;;;;;;;9.49;100.00;96951.94;4968427;28;20185;-68
2023/09/28 03:55:33;;;;;;;10.48;7.80;;;;;;;9.61;100.00;96949.09;4971286;28;20035;-67
2023/09/28 03:58:02;;;;;;;12.38;7.32;;;;;;;9.60;100.00;96947.53;4961556;28;20054;-69
2023/09/28 04:00:28;;;;;;;11.23;7.40;;;;;;;9.70;100.00;96949.72;4956564;28;20047;-69
2023/09/28 04:02:54;;;;;;;13.50;7.57;;;;;;;9.84;100.00;96953.94;4960188;28;20525;-69
2023/09/28 04:05:20;;;;;;;11.02;7.00;;;;;;;9.84;100.00;96952.00;4957123;28;20046;-68
2023/09/28 04:07:46;;;;;;;10.95;6.95;;;;;;;9.82;100.00;96953.50;4964780;28;20118;-69
2023/09/28 04:10:11;;;;;;;9.95;6.68;;;;;;;9.71;100.00;96954.03;4961616;28;20410;-69
2023/09/28 04:12:38;;;;;;;11.55;7.00;;;;;;;9.83;100.00;96955.09;4964537;28;20069;-69
2023/09/28 04:15:05;;;;;;;8.65;6.95;;;;;;;9.86;100.00;96954.38;4967044;28;20047;-69
2023/09/28 04:17:31;;;;;;;13.25;7.10;;;;;;;9.90;100.00;96953.34;4969188;28;20042;-69
2023/09/28 04:19:56;;;;;;;10.95;7.13;;;;;;;9.94;100.00;96961.63;4978562;28;20409;-69
2023/09/28 04:22:21;;;;;;;10.25;7.05;;;;;;;10.00;100.00;96953.94;4968588;28;20957;-68
2023/09/28 04:24:47;;;;;;;11.43;7.07;;;;;;;10.02;100.00;96957.09;4966290;28;20038;-69
2023/09/28 04:27:12;;;;;;;11.70;6.53;;;;;;;10.03;100.00;96964.13;4961019;28;20034;-68
2023/09/28 04:29:40;;;;;;;13.52;6.88;;;;;;;10.04;100.00;96957.53;4969170;28;20042;-67
2023/09/28 04:32:05;;;;;;;13.70;6.90;;;;;;;10.04;100.00;96960.25;4976791;28;20047;-68
2023/09/28 04:34:30;;;;;;;8.90;6.70;;;;;;;9.95;100.00;96954.97;4964845;28;20486;-68
2023/09/28 04:36:57;;;;;;;10.15;7.03;;;;;;;9.91;100.00;96959.59;4965902;28;20374;-68
2023/09/28 04:39:24;;;;;;;10.70;6.43;;;;;;;10.01;100.00;96960.97;4961124;28;20549;-67
2023/09/28 04:41:49;;;;;;;11.40;6.90;;;;;;;10.07;100.00;96962.28;4965154;28;20035;-70
2023/09/28 04:44:15;;;;;;;14.20;7.70;;;;;;;10.12;100.00;96967.50;4972235;28;20094;-69
2023/09/28 04:46:40;;;;;;;12.85;7.07;;;;;;;10.11;100.00;96972.16;4966005;28;20039;-70
2023/09/28 04:49:05;;;;;;;13.30;7.07;;;;;;;10.17;100.00;96975.41;4978878;28;20517;-70
2023/09/28 04:51:31;;;;;;;10.77;7.53;;;;;;;10.23;100.00;96974.00;4969157;28;20043;-70
2023/09/28 04:53:56;;;;;;;14.18;6.68;;;;;;;10.23;100.00;96979.47;4979492;28;20051;-68
2023/09/28 04:56:22;;;;;;;13.68;7.20;;;;;;;10.25;100.00;96979.13;4975888;28;20049;-70
2023/09/28 04:58:48;;;;;;;18.13;9.93;;;;;;;10.09;100.00;96982.66;4975715;28;20049;-69
2023/09/28 05:01:13;;;;;;;18.05;8.00;;;;;;;10.00;100.00;96984.03;4966144;28;20043;-68
2023/09/28 05:03:39;;;;;;;14.85;8.02;;;;;;;9.87;100.00;96983.34;4963373;28;20197;-68
2023/09/28 05:06:05;;;;;;;15.70;7.75;;;;;;;9.92;100.00;96983.03;4975252;28;20042;-68
2023/09/28 05:08:30;;;;;;;12.23;8.13;;;;;;;10.03;100.00;96983.28;4973218;28;20039;-69
2023/09/28 05:10:57;;;;;;;14.38;7.40;;;;;;;10.08;100.00;96985.75;4979404;28;20447;-69
2023/09/28 05:13:24;;;;;;;12.00;7.53;;;;;;;10.20;100.00;96979.38;4973860;28;20808;-69
2023/09/28 05:15:49;;;;;;;18.00;8.85;;;;;;;10.22;100.00;96983.34;4966270;28;20046;-69
2023/09/28 05:18:15;;;;;;;12.10;7.88;;;;;;;10.24;100.00;96978.31;4971816;28;20058;-69
2023/09/28 05:20:40;;;;;;;10.68;7.90;;;;;;;10.20;100.00;96977.44;4979960;28;20544;-69
2023/09/28 05:23:06;;;;;;;12.43;8.70;;;;;;;10.26;100.00;96965.06;4981443;28;20524;-69
2023/09/28 05:25:33;;;;;;;22.63;10.68;;;;;;;9.59;100.00;96958.81;4975783;28;20594;-69
2023/09/28 05:28:02;;;;;;;19.98;11.80;;;;;;;9.09;100.00;96947.41;4972508;28;20126;-68
2023/09/28 05:30:28;;;;;;;17.60;12.03;;;;;;;8.98;100.00;96953.41;4962301;28;20541;-69
2023/09/28 05:32:53;;;;;;;24.20;13.93;;;;;;;9.16;100.00;96962.09;4963273;28;20456;-69
2023/09/28 05:35:21;;;;;;;22.33;12.65;;;;;;;9.42;100.00;96958.03;4959114;28;20422;-69
2023/09/28 05:37:47;;;;;;;28.63;15.07;;;;;;;9.66;100.00;96953.53;4964530;28;20466;-69
2023/09/28 05:40:13;;;;;;;24.77;15.30;;;;;;;9.62;100.00;96952.66;4959844;28;20051;-69
2023/09/28 05:42:39;;;;;;;27.50;15.23;;;;;;;9.73;100.00;96962.69;4964324;28;20482;-69
2023/09/28 05:45:05;;;;;;;28.83;14.82;;;;;;;9.95;100.00;96969.44;4961604;28;20104;-69
2023/09/28 05:47:33;;;;;;;26.60;15.43;;;;;;;10.17;100.00;96980.09;4964829;28;20089;-70
2023/09/28 05:49:59;;;;;;;22.05;12.95;;;;;;;10.33;100.00;96991.81;4972180;28;20399;-69
2023/09/28 05:52:24;;;;;;;21.27;11.23;;;;;;;10.41;100.00;97004.53;4957728;28;20054;-70
2023/09/28 05:54:49;;;;;;;19.45;11.10;;;;;;;10.49;100.00;97003.50;4971932;28;20054;-70
2023/09/28 05:57:15;;;;;;;22.10;11.75;;;;;;;10.55;100.00;97014.97;4957711;28;20043;-71
2023/09/28 05:59:40;;;;;;;16.42;10.80;;;;;;;10.61;100.00;97029.22;4977717;28;20069;-70
2023/09/28 06:02:06;;;;;;;20.40;11.40;;;;;;;10.57;100.00;97028.31;4969732;28;20035;-70
2023/09/28 06:04:33;;;;;;;21.08;11.38;;;;;;;10.61;100.00;97031.94;4984669;28;20157;-70
2023/09/28 06:06:58;;;;;;;19.52;11.13;;;;;;;10.73;100.00;97039.22;4978255;28;20046;-70
2023/09/28 06:09:24;;;;;;;17.90;10.70;;;;;;;10.92;100.00;97044.72;4978491;28;20304;-69
2023/09/28 06:11:52;;;;;;;15.85;10.18;;;;;;;11.04;100.00;97043.81;4973319;28;20043;-70
2023/09/28 06:14:19;;;;;;;18.27;10.93;;;;;;;11.00;100.00;97034.69;4957376;28;20127;-70
2023/09/28 06:16:45;;;;;;;22.05;12.07;;;;;;;10.49;100.00;97038.34;4974530;28;20050;-69
2023/09/28 06:19:12;;;;;;;21.52;12.32;;;;;;;10.42;100.00;97038.97;4957548;28;20050;-69
2023/09/28 06:21:38;;;;;;;17.27;12.27;;;;;;;10.54;100.00;97040.00;4962784;28;20134;-70
2023/09/28 06:24:04;;;;;;;19.52;12.88;;;;;;;10.56;100.00;97037.69;4963956;28;20035;-68
2023/09/28 06:26:29;;;;;;;18.80;12.57;;;;;;;10.54;100.00;97038.06;4962010;28;20482;-69
2023/09/28 06:28:55;;;;;;;22.52;13.70;;;;;;;10.18;100.00;97034.50;4965168;28;20071;-69
2023/09/28 06:31:20;;;;;;;23.60;14.70;;;;;;;10.31;100.00;97038.72;4976190;28;20113;-69
2023/09/28 06:33:46;;;;;;;27.48;15.40;;;;;;;10.47;100.00;97035.94;4982570;28;20050;-69
2023/09/28 06:36:12;;;;;;;25.20;14.88;;;;;;;10.64;100.00;97040.25;4979611;28;20045;-70
2023/09/28 06:38:37;;;;;;;24.45;16.27;;;;;;;10.89;100.00;97027.06;4963111;28;20047;-70
2023/09/28 06:41:03;;;;;;;23.65;16.23;;;;;;;11.05;100.00;97034.41;4960762;28;20438;-69
2023/09/28 06:43:29;;;;;;;30.33;17.02;;;;;;;11.30;100.00;97023.91;4962648;28;20046;-70
2023/09/28 06:45:56;;;;;;;25.27;16.45;;;;;;;11.43;100.00;97030.03;4964043;28;20134;-70
2023/09/28 06:48:22;;;;;;;25.13;16.48;;;;;;;11.75;100.00;97025.09;4971871;28;20034;-70
2023/09/28 06:50:49;;;;;;;24.85;16.15;;;;;;;12.07;100.00;97026.84;4965469;28;20038;-70
2023/09/28 06:53:16;;;;;;;25.40;15.13;;;;;;;12.14;100.00;97027.72;4958840;28;20060;-71
2023/09/28 06:55:42;;;;;;;28.13;15.27;;;;;;;12.29;100.00;97030.69;4963238;28;20121;-70
2023/09/28 06:58:09;;;;;;;27.60;15.52;;;;;;;12.76;100.00;97032.91;4959025;28;20582;-70
2023/09/28 07:00:35;;;;;;;38.60;21.10;;;;;;;13.02;100.00;97036.78;4969971;28;20084;-69
2023/09/28 07:03:00;;;;;;;25.75;16.55;;;;;;;13.27;100.00;97034.31;4971362;28;20066;-70
2023/09/28 07:05:26;;;;;;;27.02;17.40;;;;;;;13.49;100.00;97040.09;4961589;28;20047;-70
2023/09/28 07:07:51;;;;;;;31.42;16.95;;;;;;;13.59;100.00;97042.13;4962459;28;20074;-70
2023/09/28 07:10:17;;;;;;;27.50;15.05;;;;;;;13.69;100.00;97046.19;4958398;28;20042;-70
2023/09/28 07:12:43;;;;;;;22.50;12.93;;;;;;;13.98;100.00;97043.69;4983159;28;20074;-70
2023/09/28 07:15:09;;;;;;;16.90;11.45;;;;;;;14.29;100.00;97037.63;4965705;28;20079;-70
2023/09/28 07:17:34;;;;;;;18.10;11.23;;;;;;;14.54;100.00;97051.56;4974976;28;20050;-70
2023/09/28 07:20:00;;;;;;;16.48;10.77;;;;;;;14.77;100.00;97052.53;4963481;28;20047;-70
2023/09/28 07:22:26;;;;;;;20.20;11.15;;;;;;;14.88;100.00;97056.91;4970457;28;20046;-69
2023/09/28 07:24:53;;;;;;;15.60;9.95;;;;;;;14.95;100.00;97061.69;4967186;28;20051;-69
2023/09/28 07:27:18;;;;;;;14.40;9.82;;;;;;;15.09;100.00;97058.22;4975391;28;20126;-71
2023/09/28 07:29:44;;;;;;;16.10;9.95;;;;;;;15.24;100.00;97050.75;4967349;28;20113;-69
2023/09/28 07:32:10;;;;;;;14.30;10.05;;;;;;;15.26;100.00;97062.19;4976562;28;20046;-69
2023/09/28 07:34:36;;;;;;;17.45;9.57;;;;;;;15.22;100.00;97053.91;4982309;28;20142;-69
2023/09/28 07:37:03;;;;;;;17.13;9.00;;;;;;;15.25;100.00;97053.13;4960316;28;20051;-69
2023/09/28 07:39:29;;;;;;;12.57;9.10;;;;;;;15.24;100.00;97051.56;4966512;28;20050;-70
2023/09/28 07:41:54;;;;;;;17.30;11.00;;;;;;;15.00;100.00;97052.22;4966973;28;20038;-70
2023/09/28 07:44:19;;;;;;;19.67;11.70;;;;;;;14.45;100.00;97053.09;4965293;28;20077;-70
2023/09/28 07:46:46;;;;;;;18.98;11.63;;;;;;;14.71;100.00;97054.84;4966120;28;20119;-70
2023/09/28 07:49:14;;;;;;;18.73;11.50;;;;;;;14.96;100.00;97068.75;4959924;28;20070;-70
2023/09/28 07:51:40;;;;;;;17.42;10.57;;;;;;;16.01;100.00;97078.19;4965736;28;20126;-70
2023/09/28 07:54:06;;;;;;;17.23;10.82;;;;;;;17.32;100.00;97088.66;4960971;28;20527;-67
2023/09/28 07:56:31;;;;;;;13.38;8.90;;;;;;;18.00;100.00;97093.88;4966246;28;20070;-68
2023/09/28 07:58:57;;;;;;;14.90;7.95;;;;;;;19.36;100.00;97091.06;4980046;28;20378;-68
2023/09/28 08:01:23;;;;;;;14.45;7.82;;;;;;;20.96;100.00;97097.44;4960980;28;20133;-68
2023/09/28 08:03:48;;;;;;;11.98;8.63;;;;;;;22.01;91.05;97116.41;4966091;28;20050;-68
2023/09/28 08:06:14;;;;;;;15.10;9.75;;;;;;;21.32;92.36;97117.03;4980791;28;20042;-68
2023/09/28 08:08:39;;;;;;;11.10;7.38;;;;;;;21.84;89.99;97120.34;4968703;28;20053;-68
2023/09/28 08:11:05;;;;;;;11.57;8.13;;;;;;;22.07;88.79;97128.59;4967717;28;20038;-67
2023/09/28 08:13:30;;;;;;;14.50;9.98;;;;;;;22.05;86.94;97121.91;4965142;28;20466;-68
2023/09/28 08:15:55;;;;;;;19.73;11.98;;;;;;;21.11;93.49;97120.22;4972639;28;20057;-69
2023/09/28 08:18:21;;;;;;;16.90;10.30;;;;;;;20.67;99.40;97106.28;4975697;28;20506;-69
2023/09/28 08:20:47;;;;;;;18.48;10.85;;;;;;;20.65;100.00;97102.34;4966244;28;20047;-69
2023/09/28 08:23:12;;;;;;;15.52;12.35;;;;;;;19.59;100.00;97093.94;4978087;28;20377;-69
2023/09/28 08:25:38;;;;;;;20.38;12.40;;;;;;;20.43;100.00;97097.88;4969264;28;20105;-69
2023/09/28 08:28:03;;;;;;;16.42;11.70;;;;;;;20.54;100.00;97094.91;4964070;28;20133;-68
2023/09/28 08:30:29;;;;;;;14.95;11.35;;;;;;;20.52;100.00;97097.34;4968464;28;20502;-68
2023/09/28 08:32:54;;;;;;;15.15;11.10;;;;;;;21.25;97.67;97106.00;4964218;28;20039;-69
2023/09/28 08:35:20;;;;;;;14.43;9.57;;;;;;;23.64;84.39;97105.47;4960473;28;20051;-69
2023/09/28 08:37:46;;;;;;;15.70;9.95;;;;;;;24.98;73.90;97120.50;4965985;28;20090;-70
2023/09/28 08:40:13;;;;;;;14.35;9.73;;;;;;;25.85;67.80;97120.22;4959871;28;20125;-70
2023/09/28 08:42:42;;;;;;;13.73;9.50;;;;;;;26.48;60.79;97135.03;4972942;28;20121;-70
2023/09/28 08:45:12;;;;;;;17.02;9.98;;;;;;;27.11;60.07;97132.06;4964454;28;20069;-70
2023/09/28 08:47:47;;;;;;;15.98;8.55;;;;;;;27.83;56.24;97130.47;4964280;28;20047;-70
2023/09/28 08:50:25;;;;;;;17.40;8.95;;;;;;;28.00;53.27;97121.69;4958414;28;20067;-69
2023/09/28 08:52:51;;;;;;;13.15;8.50;;;;;;;28.08;52.73;97130.63;4971438;28;20750;-70
2023/09/28 08:55:18;;;;;;;14.60;9.60;;;;;;;25.95;60.50;97121.88;4960634;28;20046;-70
2023/09/28 08:57:43;;;;;;;14.80;9.38;;;;;;;25.47;62.97;97112.81;4976009;28;20041;-68
2023/09/28 09:00:13;;;;;;;15.10;9.93;;;;;;;26.98;57.15;97121.75;4963269;28;20524;-69
2023/09/28 09:02:42;;;;;;;16.40;9.50;;;;;;;27.44;54.96;97121.81;4964419;28;20128;-68
2023/09/28 09:05:07;;;;;;;14.57;9.23;;;;;;;28.03;51.30;97123.59;4978296;28;20074;-70
2023/09/28 09:07:36;;;;;;;10.85;7.78;;;;;;;27.40;53.44;97121.16;4983565;28;20160;-70
2023/09/28 09:10:02;;;;;;;17.17;10.35;;;;;;;23.63;63.17;97101.13;4967074;28;20069;-70
2023/09/28 09:12:32;;;;;;;15.48;7.97;;;;;;;26.21;56.71;97110.44;4963621;28;20050;-70
2023/09/28 09:14:58;;;;;;;13.20;8.02;;;;;;;26.64;54.83;97117.16;4963555;28;20039;-70
2023/09/28 09:17:33;;;;;;;13.15;7.75;;;;;;;26.77;53.47;97120.63;4969030;28;20117;-70
2023/09/28 09:19:59;;;;;;;10.95;7.53;;;;;;;26.80;52.71;97122.50;4973888;28;20057;-69
2023/09/28 09:22:30;;;;;;;21.15;8.07;;;;;;;23.93;62.18;97099.88;4960743;28;20043;-70
2023/09/28 09:24:57;;;;;;;11.45;7.57;;;;;;;24.74;62.42;97100.50;4963406;28;20133;-69
2023/09/28 09:27:31;;;;;;;15.20;8.73;;;;;;;25.10;64.38;97101.28;4957150;28;20066;-69
2023/09/28 09:30:08;;;;;;;21.73;8.93;;;;;;;25.31;65.16;97103.34;4969225;28;20762;-69
2023/09/28 09:32:34;;;;;;;14.23;9.25;;;;;;;25.84;65.89;97104.63;4962149;28;20047;-70
2023/09/28 09:35:00;;;;;;;28.05;13.70;;;;;;;25.84;64.66;97107.41;4973366;28;20050;-68
2023/09/28 09:37:26;;;;;;;13.55;8.82;;;;;;;26.72;61.63;97109.22;4973324;28;20058;-68
2023/09/28 09:39:51;;;;;;;15.25;8.90;;;;;;;26.60;60.43;97106.06;4971348;28;20800;-68
2023/09/28 09:42:27;;;;;;;12.75;8.60;;;;;;;26.79;58.81;97101.25;4958920;28;20121;-68
2023/09/28 09:44:54;;;;;;;13.70;8.20;;;;;;;26.92;57.99;97101.16;4966947;28;20050;-68
2023/09/28 09:47:20;;;;;;;10.65;8.25;;;;;;;27.77;55.90;97106.28;4958797;28;20035;-68
2023/09/28 09:49:48;;;;;;;11.05;8.13;;;;;;;27.80;55.02;97113.75;4963587;28;20097;-68
2023/09/28 09:52:17;;;;;;;14.23;10.35;;;;;;;27.63;52.92;97116.16;4972549;28;20493;-69
2023/09/28 09:54:45;;;;;;;13.90;7.72;;;;;;;28.25;51.90;97119.75;4963482;28;20060;-68
2023/09/28 09:57:18;;;;;;;13.70;8.57;;;;;;;28.28;50.86;97116.75;4959589;28;20094;-67
2023/09/28 09:59:48;;;;;;;10.85;7.22;;;;;;;27.66;53.60;97120.84;4964467;28;20109;-69
2023/09/28 10:02:28;;;;;;;14.93;8.75;;;;;;;27.39;55.01;97116.03;4967283;28;20064;-69
2023/09/28 10:04:54;;;;;;;13.40;7.43;;;;;;;27.19;55.95;97117.25;4965962;28;20130;-68
2023/09/28 10:07:33;;;;;;;11.50;7.22;;;;;;;27.45;53.61;97114.91;4959897;28;20390;-69
2023/09/28 10:09:59;;;;;;;13.88;7.97;;;;;;;27.03;56.32;97112.72;4965199;28;20050;-68
2023/09/28 10:12:28;;;;;;;12.73;7.90;;;;;;;26.81;57.33;97112.84;4965084;28;20102;-68
2023/09/28 10:14:56;;;;;;;15.00;7.87;;;;;;;26.36;58.67;97110.66;4960810;28;20149;-69
2023/09/28 10:17:25;;;;;;;14.15;7.55;;;;;;;26.72;57.77;97109.22;4970563;28;20345;-69
2023/09/28 10:19:53;;;;;;;13.13;8.10;;;;;;;26.65;58.37;97110.28;4978763;28;20382;-69
2023/09/28 10:22:19;;;;;;;11.43;6.93;;;;;;;27.18;57.13;97103.66;4974134;28;20103;-68
2023/09/28 10:24:44;;;;;;;14.13;7.80;;;;;;;26.98;55.53;97107.69;4984274;28;20500;-68
2023/09/28 10:27:10;;;;;;;15.57;7.22;;;;;;;26.49;57.23;97109.28;4958274;28;20098;-67
2023/09/28 10:29:37;;;;;;;17.27;7.55;;;;;;;26.92;57.58;97105.97;4965417;28;20494;-70
2023/09/28 10:32:12;;;;;;;13.80;7.72;;;;;;;27.50;55.38;97105.06;4979704;28;20077;-69
2023/09/28 10:34:39;;;;;;;9.63;6.85;;;;;;;27.38;54.92;97098.34;4961091;28;20138;-70
2023/09/28 10:37:04;;;;;;;10.07;6.63;;;;;;;27.80;55.42;97092.03;4958101;28;20047;-69
2023/09/28 10:39:31;;;;;;;12.77;7.27;;;;;;;26.84;56.34;97097.84;4963333;28;20548;-70
2023/09/28 10:42:04;;;;;;;12.85;6.90;;;;;;;27.51;54.33;97092.56;4962099;28;20353;-69
2023/09/28 10:44:31;;;;;;;13.52;7.25;;;;;;;26.97;55.74;97088.50;4965827;28;20060;-69
2023/09/28 10:46:58;;;;;;;12.75;7.65;;;;;;;27.36;55.70;97091.66;4964015;28;20049;-69
2023/09/28 10:49:28;;;;;;;13.95;8.25;;;;;;;27.07;56.42;97088.03;4973237;28;20757;-69
2023/09/28 10:51:57;;;;;;;13.38;8.32;;;;;;;26.57;57.92;97089.34;4980017;28;20042;-68
2023/09/28 10:54:26;;;;;;;15.80;8.30;;;;;;;26.33;58.50;97085.06;4965547;28;20061;-68
2023/09/28 10:56:53;;;;;;;13.40;8.15;;;;;;;26.19;59.16;97082.06;4963306;28;20058;-68
2023/09/28 10:59:19;;;;;;;14.05;8.00;;;;;;;26.15;61.04;97073.00;4988119;28;20042;-69
2023/09/28 11:01:45;;;;;;;13.43;7.93;;;;;;;25.97;61.67;97077.28;4962755;28;20509;-69
2023/09/28 11:04:12;;;;;;;14.40;8.60;;;;;;;26.11;61.79;97071.13;4961017;28;20540;-69
2023/09/28 11:06:38;;;;;;;12.43;8.30;;;;;;;26.04;61.90;97065.00;4974637;28;20047;-69
2023/09/28 11:09:09;;;;;;;15.00;8.30;;;;;;;25.73;62.51;97068.56;4958918;28;20035;-68
2023/09/28 11:11:34;;;;;;;12.80;8.35;;;;;;;25.45;64.58;97062.78;4970301;28;20410;-69
2023/09/28 11:14:00;;;;;;;15.10;7.93;;;;;;;25.75;63.99;97054.88;4964329;28;20050;-69
2023/09/28 11:16:27;;;;;;;13.70;8.35;;;;;;;26.00;62.61;97053.94;4970981;28;20050;-68
2023/09/28 11:18:54;;;;;;;14.15;8.38;;;;;;;26.11;61.85;97050.69;4965989;28;20066;-68
2023/09/28 11:21:20;;;;;;;19.77;9.82;;;;;;;26.49;61.12;97049.56;4959806;28;20031;-68